sensor_id;sensor_type;location;lat;lon;timestamp;temperature;humidity
7366;DHT22;3723;52.220;8.792;2023-10-13T00:01:47;15.80;1.00
7366;DHT22;3723;52.220;8.792;2023-10-13T00:04:14;15.90;1.00
7366;DHT22;3723;52.220;8.792;2023-10-13T00:06:41;15.80;1.00
7366;DHT22;3723;52.220;8.792;2023-10-13T00:09:11;15.80;1.00
7366;DHT22;3723;52.220;8.792;2023-10-13T00:11:41;15.80;1.00
7366;DHT22;3723;52.220;8.792;2023-10-13T00:14:13;15.80;1.00
7366;DHT22;3723;52.220;8.792;2023-10-13T00:16:43;15.80;1.00
7366;DHT22;3723;52.220;8.792;2023-10-13T00:19:27;15.70;1.00
7366;DHT22;3723;52.220;8.792;2023-10-13T00:21:54;15.80;1.00
7366;DHT22;3723;52.220;8.792;2023-10-13T00:24:28;15.80;1.00
7366;DHT22;3723;52.220;8.792;2023-10-13T00:27:05;15.80;1.00
7366;DHT22;3723;52.220;8.792;2023-10-13T00:29:33;15.70;1.00
7366;DHT22;3723;52.220;8.792;2023-10-13T00:32:03;15.70;1.00
7366;DHT22;3723;52.220;8.792;2023-10-13T00:34:37;15.80;1.00
7366;DHT22;3723;52.220;8.792;2023-10-13T00:37:04;15.70;1.00
7366;DHT22;3723;52.220;8.792;2023-10-13T00:39:53;15.80;1.00
7366;DHT22;3723;52.220;8.792;2023-10-13T00:42:22;15.80;1.00
7366;DHT22;3723;52.220;8.792;2023-10-13T00:45:01;15.80;1.00
7366;DHT22;3723;52.220;8.792;2023-10-13T00:47:27;15.70;1.00
7366;DHT22;3723;52.220;8.792;2023-10-13T00:50:14;15.80;1.00
7366;DHT22;3723;52.220;8.792;2023-10-13T00:52:44;15.70;1.00
7366;DHT22;3723;52.220;8.792;2023-10-13T00:55:13;15.70;1.00
7366;DHT22;3723;52.220;8.792;2023-10-13T00:57:42;15.80;1.00
7366;DHT22;3723;52.220;8.792;2023-10-13T01:00:11;15.80;1.00
7366;DHT22;3723;52.220;8.792;2023-10-13T01:02:44;15.80;1.00
7366;DHT22;3723;52.220;8.792;2023-10-13T01:05:11;15.90;1.00
7366;DHT22;3723;52.220;8.792;2023-10-13T01:07:45;15.90;1.00
7366;DHT22;3723;52.220;8.792;2023-10-13T01:10:12;15.80;1.00
7366;DHT22;3723;52.220;8.792;2023-10-13T01:12:40;15.90;1.00
7366;DHT22;3723;52.220;8.792;2023-10-13T01:15:11;15.90;1.00
7366;DHT22;3723;52.220;8.792;2023-10-13T01:17:41;15.90;1.00
7366;DHT22;3723;52.220;8.792;2023-10-13T01:20:10;15.90;1.00
7366;DHT22;3723;52.220;8.792;2023-10-13T01:22:40;15.90;1.00
7366;DHT22;3723;52.220;8.792;2023-10-13T01:25:09;15.90;1.00
7366;DHT22;3723;52.220;8.792;2023-10-13T01:27:39;16.00;1.00
7366;DHT22;3723;52.220;8.792;2023-10-13T01:30:07;15.90;1.00
7366;DHT22;3723;52.220;8.792;2023-10-13T01:32:36;15.90;1.00
7366;DHT22;3723;52.220;8.792;2023-10-13T01:35:07;16.00;1.00
7366;DHT22;3723;52.220;8.792;2023-10-13T01:37:34;16.00;1.00
7366;DHT22;3723;52.220;8.792;2023-10-13T01:40:00;16.00;1.00
7366;DHT22;3723;52.220;8.792;2023-10-13T01:42:28;16.00;1.00
7366;DHT22;3723;52.220;8.792;2023-10-13T01:44:56;16.00;1.00
7366;DHT22;3723;52.220;8.792;2023-10-13T01:47:31;16.00;1.00
7366;DHT22;3723;52.220;8.792;2023-10-13T01:49:58;16.00;1.00
7366;DHT22;3723;52.220;8.792;2023-10-13T01:52:32;16.10;1.00
7366;DHT22;3723;52.220;8.792;2023-10-13T01:54:58;16.20;1.00
7366;DHT22;3723;52.220;8.792;2023-10-13T01:57:28;16.10;1.00
7366;DHT22;3723;52.220;8.792;2023-10-13T01:59:53;16.00;1.00
7366;DHT22;3723;52.220;8.792;2023-10-13T02:02:21;16.00;1.00
7366;DHT22;3723;52.220;8.792;2023-10-13T02:04:54;16.00;1.00
7366;DHT22;3723;52.220;8.792;2023-10-13T02:07:26;16.00;1.00
7366;DHT22;3723;52.220;8.792;2023-10-13T02:09:56;16.10;1.00
7366;DHT22;3723;52.220;8.792;2023-10-13T02:12:23;16.10;1.00
7366;DHT22;3723;52.220;8.792;2023-10-13T02:14:56;16.10;1.00
7366;DHT22;3723;52.220;8.792;2023-10-13T02:17:26;16.00;1.00
7366;DHT22;3723;52.220;8.792;2023-10-13T02:19:53;16.00;1.00
7366;DHT22;3723;52.220;8.792;2023-10-13T02:22:20;16.00;1.00
7366;DHT22;3723;52.220;8.792;2023-10-13T02:24:53;16.00;1.00
7366;DHT22;3723;52.220;8.792;2023-10-13T02:27:22;15.90;1.00
7366;DHT22;3723;52.220;8.792;2023-10-13T02:29:49;15.90;1.00
7366;DHT22;3723;52.220;8.792;2023-10-13T02:32:21;16.00;1.00
7366;DHT22;3723;52.220;8.792;2023-10-13T02:34:47;16.00;1.00
7366;DHT22;3723;52.220;8.792;2023-10-13T02:37:14;15.90;1.00
7366;DHT22;3723;52.220;8.792;2023-10-13T02:39:42;16.00;1.00
7366;DHT22;3723;52.220;8.792;2023-10-13T02:42:09;16.00;1.00
7366;DHT22;3723;52.220;8.792;2023-10-13T02:44:41;16.00;1.00
7366;DHT22;3723;52.220;8.792;2023-10-13T02:47:12;16.00;1.00
7366;DHT22;3723;52.220;8.792;2023-10-13T02:49:41;16.00;1.00
7366;DHT22;3723;52.220;8.792;2023-10-13T02:52:11;16.10;1.00
7366;DHT22;3723;52.220;8.792;2023-10-13T02:54:38;16.00;1.00
7366;DHT22;3723;52.220;8.792;2023-10-13T02:57:12;16.00;1.00
7366;DHT22;3723;52.220;8.792;2023-10-13T02:59:38;16.00;1.00
7366;DHT22;3723;52.220;8.792;2023-10-13T03:02:12;16.00;1.00
7366;DHT22;3723;52.220;8.792;2023-10-13T03:04:46;16.10;1.00
7366;DHT22;3723;52.220;8.792;2023-10-13T03:07:12;16.00;1.00
7366;DHT22;3723;52.220;8.792;2023-10-13T03:09:42;16.10;1.00
7366;DHT22;3723;52.220;8.792;2023-10-13T03:12:16;16.10;1.00
7366;DHT22;3723;52.220;8.792;2023-10-13T03:14:43;16.10;1.00
7366;DHT22;3723;52.220;8.792;2023-10-13T03:17:13;16.10;1.00
7366;DHT22;3723;52.220;8.792;2023-10-13T03:19:43;16.10;1.00
7366;DHT22;3723;52.220;8.792;2023-10-13T03:22:13;16.10;1.00
7366;DHT22;3723;52.220;8.792;2023-10-13T03:24:42;16.10;1.00
7366;DHT22;3723;52.220;8.792;2023-10-13T03:27:11;16.20;1.00
7366;DHT22;3723;52.220;8.792;2023-10-13T03:29:42;16.20;1.00
7366;DHT22;3723;52.220;8.792;2023-10-13T03:32:09;16.20;1.00
7366;DHT22;3723;52.220;8.792;2023-10-13T03:34:38;16.20;1.00
7366;DHT22;3723;52.220;8.792;2023-10-13T03:37:17;16.20;1.00
7366;DHT22;3723;52.220;8.792;2023-10-13T03:40:01;16.20;1.00
7366;DHT22;3723;52.220;8.792;2023-10-13T03:42:31;16.20;1.00
7366;DHT22;3723;52.220;8.792;2023-10-13T03:44:58;16.20;1.00
7366;DHT22;3723;52.220;8.792;2023-10-13T03:47:25;16.20;1.00
7366;DHT22;3723;52.220;8.792;2023-10-13T03:49:53;16.20;1.00
7366;DHT22;3723;52.220;8.792;2023-10-13T03:52:42;16.20;1.00
7366;DHT22;3723;52.220;8.792;2023-10-13T03:55:10;16.20;1.00
7366;DHT22;3723;52.220;8.792;2023-10-13T03:57:43;16.30;1.00
7366;DHT22;3723;52.220;8.792;2023-10-13T04:00:12;16.20;1.00
7366;DHT22;3723;52.220;8.792;2023-10-13T04:02:47;16.20;1.00
7366;DHT22;3723;52.220;8.792;2023-10-13T04:05:19;16.20;1.00
7366;DHT22;3723;52.220;8.792;2023-10-13T04:08:03;16.20;1.00
7366;DHT22;3723;52.220;8.792;2023-10-13T04:10:48;16.20;1.00
7366;DHT22;3723;52.220;8.792;2023-10-13T04:13:32;16.10;1.00
7366;DHT22;3723;52.220;8.792;2023-10-13T04:16:17;16.10;1.00
7366;DHT22;3723;52.220;8.792;2023-10-13T04:19:02;16.20;1.00
7366;DHT22;3723;52.220;8.792;2023-10-13T04:21:46;16.20;1.00
7366;DHT22;3723;52.220;8.792;2023-10-13T04:24:26;16.20;1.00
7366;DHT22;3723;52.220;8.792;2023-10-13T04:27:10;16.20;1.00
7366;DHT22;3723;52.220;8.792;2023-10-13T04:30:06;16.30;1.00
7366;DHT22;3723;52.220;8.792;2023-10-13T04:32:50;16.40;1.00
7366;DHT22;3723;52.220;8.792;2023-10-13T04:35:30;16.40;1.00
7366;DHT22;3723;52.220;8.792;2023-10-13T04:38:01;16.30;1.00
7366;DHT22;3723;52.220;8.792;2023-10-13T04:40:41;16.40;1.00
7366;DHT22;3723;52.220;8.792;2023-10-13T04:43:24;16.40;1.00
7366;DHT22;3723;52.220;8.792;2023-10-13T04:45:59;16.40;1.00
7366;DHT22;3723;52.220;8.792;2023-10-13T04:48:40;16.40;1.00
7366;DHT22;3723;52.220;8.792;2023-10-13T04:51:12;16.40;1.00
7366;DHT22;3723;52.220;8.792;2023-10-13T04:54:10;16.30;1.00
7366;DHT22;3723;52.220;8.792;2023-10-13T04:56:39;16.30;1.00
7366;DHT22;3723;52.220;8.792;2023-10-13T04:59:39;16.30;1.00
7366;DHT22;3723;52.220;8.792;2023-10-13T05:02:20;16.30;1.00
7366;DHT22;3723;52.220;8.792;2023-10-13T05:05:07;16.40;1.00
7366;DHT22;3723;52.220;8.792;2023-10-13T05:08:11;16.40;1.00
7366;DHT22;3723;52.220;8.792;2023-10-13T05:10:55;16.30;1.00
7366;DHT22;3723;52.220;8.792;2023-10-13T05:13:40;16.20;1.00
7366;DHT22;3723;52.220;8.792;2023-10-13T05:16:25;16.30;1.00
7366;DHT22;3723;52.220;8.792;2023-10-13T05:19:10;16.20;1.00
7366;DHT22;3723;52.220;8.792;2023-10-13T05:21:54;16.20;1.00
7366;DHT22;3723;52.220;8.792;2023-10-13T05:24:38;16.20;1.00
7366;DHT22;3723;52.220;8.792;2023-10-13T05:27:22;16.20;1.00
7366;DHT22;3723;52.220;8.792;2023-10-13T05:30:09;16.20;1.00
7366;DHT22;3723;52.220;8.792;2023-10-13T05:32:53;16.20;1.00
7366;DHT22;3723;52.220;8.792;2023-10-13T05:35:37;16.30;1.00
7366;DHT22;3723;52.220;8.792;2023-10-13T05:38:22;16.20;1.00
7366;DHT22;3723;52.220;8.792;2023-10-13T05:41:04;16.20;1.00
7366;DHT22;3723;52.220;8.792;2023-10-13T05:43:49;16.30;1.00
7366;DHT22;3723;52.220;8.792;2023-10-13T05:46:35;16.20;1.00
7366;DHT22;3723;52.220;8.792;2023-10-13T05:49:14;16.20;1.00
7366;DHT22;3723;52.220;8.792;2023-10-13T05:52:06;16.20;1.00
7366;DHT22;3723;52.220;8.792;2023-10-13T05:55:05;16.10;1.00
7366;DHT22;3723;52.220;8.792;2023-10-13T05:57:50;16.10;1.00
7366;DHT22;3723;52.220;8.792;2023-10-13T06:00:38;16.00;1.00
7366;DHT22;3723;52.220;8.792;2023-10-13T06:03:25;16.00;1.00
7366;DHT22;3723;52.220;8.792;2023-10-13T06:06:09;15.90;1.00
7366;DHT22;3723;52.220;8.792;2023-10-13T06:09:19;16.00;1.00
7366;DHT22;3723;52.220;8.792;2023-10-13T06:12:06;15.90;1.00
7366;DHT22;3723;52.220;8.792;2023-10-13T06:14:50;15.90;1.00
7366;DHT22;3723;52.220;8.792;2023-10-13T06:18:01;16.00;1.00
7366;DHT22;3723;52.220;8.792;2023-10-13T06:20:47;15.90;1.00
7366;DHT22;3723;52.220;8.792;2023-10-13T06:23:32;16.00;1.00
7366;DHT22;3723;52.220;8.792;2023-10-13T06:26:16;16.00;1.00
7366;DHT22;3723;52.220;8.792;2023-10-13T06:29:04;16.00;1.00
7366;DHT22;3723;52.220;8.792;2023-10-13T06:31:33;16.10;1.00
7366;DHT22;3723;52.220;8.792;2023-10-13T06:34:00;16.20;1.00
7366;DHT22;3723;52.220;8.792;2023-10-13T06:36:30;16.20;1.00
7366;DHT22;3723;52.220;8.792;2023-10-13T06:38:58;16.10;1.00
7366;DHT22;3723;52.220;8.792;2023-10-13T06:41:39;16.10;1.00
7366;DHT22;3723;52.220;8.792;2023-10-13T06:44:06;16.20;1.00
7366;DHT22;3723;52.220;8.792;2023-10-13T06:46:40;16.20;1.00
7366;DHT22;3723;52.220;8.792;2023-10-13T06:49:07;16.20;1.00
7366;DHT22;3723;52.220;8.792;2023-10-13T06:51:37;16.20;1.00
7366;DHT22;3723;52.220;8.792;2023-10-13T06:54:05;16.30;1.00
7366;DHT22;3723;52.220;8.792;2023-10-13T06:56:37;16.30;1.00
7366;DHT22;3723;52.220;8.792;2023-10-13T06:59:06;16.40;1.00
7366;DHT22;3723;52.220;8.792;2023-10-13T07:01:32;16.50;1.00
7366;DHT22;3723;52.220;8.792;2023-10-13T07:04:04;16.50;1.00
7366;DHT22;3723;52.220;8.792;2023-10-13T07:06:40;16.50;1.00
7366;DHT22;3723;52.220;8.792;2023-10-13T07:09:10;16.60;1.00
7366;DHT22;3723;52.220;8.792;2023-10-13T07:11:53;16.60;1.00
7366;DHT22;3723;52.220;8.792;2023-10-13T07:14:26;16.70;1.00
7366;DHT22;3723;52.220;8.792;2023-10-13T07:16:56;16.70;1.00
7366;DHT22;3723;52.220;8.792;2023-10-13T07:19:25;16.60;1.00
7366;DHT22;3723;52.220;8.792;2023-10-13T07:21:55;16.70;1.00
7366;DHT22;3723;52.220;8.792;2023-10-13T07:24:25;16.70;1.00
7366;DHT22;3723;52.220;8.792;2023-10-13T07:26:53;16.60;1.00
7366;DHT22;3723;52.220;8.792;2023-10-13T07:29:29;16.70;1.00
7366;DHT22;3723;52.220;8.792;2023-10-13T07:31:59;16.80;1.00
7366;DHT22;3723;52.220;8.792;2023-10-13T07:34:28;16.80;1.00
7366;DHT22;3723;52.220;8.792;2023-10-13T07:36:59;16.90;1.00
7366;DHT22;3723;52.220;8.792;2023-10-13T07:39:28;16.90;1.00
7366;DHT22;3723;52.220;8.792;2023-10-13T07:42:00;16.90;1.00
7366;DHT22;3723;52.220;8.792;2023-10-13T07:44:34;17.10;1.00
7366;DHT22;3723;52.220;8.792;2023-10-13T07:47:06;17.00;1.00
7366;DHT22;3723;52.220;8.792;2023-10-13T07:49:37;17.10;1.00
7366;DHT22;3723;52.220;8.792;2023-10-13T07:52:07;17.10;1.00
7366;DHT22;3723;52.220;8.792;2023-10-13T07:54:52;17.10;1.00
7366;DHT22;3723;52.220;8.792;2023-10-13T07:57:35;17.20;1.00
7366;DHT22;3723;52.220;8.792;2023-10-13T08:00:18;17.20;1.00
7366;DHT22;3723;52.220;8.792;2023-10-13T08:02:57;17.10;1.00
7366;DHT22;3723;52.220;8.792;2023-10-13T08:05:33;17.20;1.00
7366;DHT22;3723;52.220;8.792;2023-10-13T08:08:22;17.20;1.00
7366;DHT22;3723;52.220;8.792;2023-10-13T08:10:51;17.30;1.00
7366;DHT22;3723;52.220;8.792;2023-10-13T08:13:21;17.30;1.00
7366;DHT22;3723;52.220;8.792;2023-10-13T08:15:49;17.30;1.00
7366;DHT22;3723;52.220;8.792;2023-10-13T08:18:18;17.30;1.00
7366;DHT22;3723;52.220;8.792;2023-10-13T08:20:57;17.30;1.00
7366;DHT22;3723;52.220;8.792;2023-10-13T08:23:30;17.30;1.00
7366;DHT22;3723;52.220;8.792;2023-10-13T08:26:15;17.30;1.00
7366;DHT22;3723;52.220;8.792;2023-10-13T08:29:10;17.40;1.00
7366;DHT22;3723;52.220;8.792;2023-10-13T08:31:55;17.40;1.00
7366;DHT22;3723;52.220;8.792;2023-10-13T08:34:39;17.40;1.00
7366;DHT22;3723;52.220;8.792;2023-10-13T08:37:26;17.40;1.00
7366;DHT22;3723;52.220;8.792;2023-10-13T08:39:56;17.40;1.00
7366;DHT22;3723;52.220;8.792;2023-10-13T08:42:40;17.40;1.00
7366;DHT22;3723;52.220;8.792;2023-10-13T08:45:20;17.50;1.00
7366;DHT22;3723;52.220;8.792;2023-10-13T08:48:09;17.50;1.00
7366;DHT22;3723;52.220;8.792;2023-10-13T08:50:43;17.60;1.00
7366;DHT22;3723;52.220;8.792;2023-10-13T08:53:15;17.90;1.00
7366;DHT22;3723;52.220;8.792;2023-10-13T08:55:52;18.00;1.00
7366;DHT22;3723;52.220;8.792;2023-10-13T08:58:31;18.10;1.00
7366;DHT22;3723;52.220;8.792;2023-10-13T09:01:13;18.40;1.00
7366;DHT22;3723;52.220;8.792;2023-10-13T09:04:00;18.60;1.00
7366;DHT22;3723;52.220;8.792;2023-10-13T09:06:48;18.70;1.00
7366;DHT22;3723;52.220;8.792;2023-10-13T09:09:29;18.80;1.00
7366;DHT22;3723;52.220;8.792;2023-10-13T09:12:01;19.00;1.00
7366;DHT22;3723;52.220;8.792;2023-10-13T09:17:07;19.40;1.00
7366;DHT22;3723;52.220;8.792;2023-10-13T09:19:51;19.60;1.00
7366;DHT22;3723;52.220;8.792;2023-10-13T09:22:22;19.70;1.00
7366;DHT22;3723;52.220;8.792;2023-10-13T09:25:01;19.90;1.00
7366;DHT22;3723;52.220;8.792;2023-10-13T09:27:30;20.00;1.00
7366;DHT22;3723;52.220;8.792;2023-10-13T09:29:58;20.10;1.00
7366;DHT22;3723;52.220;8.792;2023-10-13T09:32:35;20.30;1.00
7366;DHT22;3723;52.220;8.792;2023-10-13T09:35:17;20.50;1.00
7366;DHT22;3723;52.220;8.792;2023-10-13T09:37:44;20.90;1.00
7366;DHT22;3723;52.220;8.792;2023-10-13T09:40:15;21.40;1.00
7366;DHT22;3723;52.220;8.792;2023-10-13T09:42:51;22.00;1.00
7366;DHT22;3723;52.220;8.792;2023-10-13T09:45:27;22.60;1.00
7366;DHT22;3723;52.220;8.792;2023-10-13T09:48:01;22.80;1.00
7366;DHT22;3723;52.220;8.792;2023-10-13T09:50:36;22.70;1.00
7366;DHT22;3723;52.220;8.792;2023-10-13T09:53:04;22.60;1.00
7366;DHT22;3723;52.220;8.792;2023-10-13T09:55:36;22.40;1.00
7366;DHT22;3723;52.220;8.792;2023-10-13T09:58:07;22.00;99.90
7366;DHT22;3723;52.220;8.792;2023-10-13T10:00:43;21.90;99.90
7366;DHT22;3723;52.220;8.792;2023-10-13T10:03:15;21.80;99.90
7366;DHT22;3723;52.220;8.792;2023-10-13T10:05:58;21.90;99.90
7366;DHT22;3723;52.220;8.792;2023-10-13T10:08:34;22.00;99.90
7366;DHT22;3723;52.220;8.792;2023-10-13T10:11:12;22.60;99.90
7366;DHT22;3723;52.220;8.792;2023-10-13T10:13:53;23.20;99.90
7366;DHT22;3723;52.220;8.792;2023-10-13T10:16:36;23.70;99.90
7366;DHT22;3723;52.220;8.792;2023-10-13T10:19:08;24.00;99.90
7366;DHT22;3723;52.220;8.792;2023-10-13T10:21:36;24.30;99.90
7366;DHT22;3723;52.220;8.792;2023-10-13T10:24:14;24.30;99.90
7366;DHT22;3723;52.220;8.792;2023-10-13T10:26:53;24.40;99.90
7366;DHT22;3723;52.220;8.792;2023-10-13T10:29:20;24.70;99.90
7366;DHT22;3723;52.220;8.792;2023-10-13T10:31:47;24.80;99.90
7366;DHT22;3723;52.220;8.792;2023-10-13T10:34:17;25.00;99.90
7366;DHT22;3723;52.220;8.792;2023-10-13T10:36:53;25.30;99.90
7366;DHT22;3723;52.220;8.792;2023-10-13T10:39:20;25.40;99.90
7366;DHT22;3723;52.220;8.792;2023-10-13T10:42:08;25.70;99.90
7366;DHT22;3723;52.220;8.792;2023-10-13T10:44:41;26.20;99.90
7366;DHT22;3723;52.220;8.792;2023-10-13T10:47:10;26.40;99.90
7366;DHT22;3723;52.220;8.792;2023-10-13T10:49:46;26.60;99.90
7366;DHT22;3723;52.220;8.792;2023-10-13T10:52:17;26.80;99.90
7366;DHT22;3723;52.220;8.792;2023-10-13T10:54:45;26.90;99.90
7366;DHT22;3723;52.220;8.792;2023-10-13T10:57:17;27.20;99.90
7366;DHT22;3723;52.220;8.792;2023-10-13T10:59:45;27.70;99.90
7366;DHT22;3723;52.220;8.792;2023-10-13T11:02:12;27.80;99.90
7366;DHT22;3723;52.220;8.792;2023-10-13T11:04:45;27.70;99.90
7366;DHT22;3723;52.220;8.792;2023-10-13T11:07:26;27.80;99.90
7366;DHT22;3723;52.220;8.792;2023-10-13T11:09:54;27.90;99.90
7366;DHT22;3723;52.220;8.792;2023-10-13T11:12:32;27.80;99.90
7366;DHT22;3723;52.220;8.792;2023-10-13T11:15:01;27.50;99.90
7366;DHT22;3723;52.220;8.792;2023-10-13T11:17:29;27.40;99.90
7366;DHT22;3723;52.220;8.792;2023-10-13T11:20:13;27.50;99.90
7366;DHT22;3723;52.220;8.792;2023-10-13T11:22:45;27.60;99.90
7366;DHT22;3723;52.220;8.792;2023-10-13T11:25:21;27.30;99.90
7366;DHT22;3723;52.220;8.792;2023-10-13T11:27:49;26.90;99.90
7366;DHT22;3723;52.220;8.792;2023-10-13T11:30:33;26.90;99.90
7366;DHT22;3723;52.220;8.792;2023-10-13T11:33:08;26.80;99.90
7366;DHT22;3723;52.220;8.792;2023-10-13T11:35:38;27.00;99.90
7366;DHT22;3723;52.220;8.792;2023-10-13T11:38:24;27.30;99.90
7366;DHT22;3723;52.220;8.792;2023-10-13T11:40:56;27.70;99.90
7366;DHT22;3723;52.220;8.792;2023-10-13T11:43:34;27.80;99.90
7366;DHT22;3723;52.220;8.792;2023-10-13T11:46:18;27.70;99.90
7366;DHT22;3723;52.220;8.792;2023-10-13T11:49:05;27.70;99.90
7366;DHT22;3723;52.220;8.792;2023-10-13T11:51:44;27.20;99.90
7366;DHT22;3723;52.220;8.792;2023-10-13T11:54:12;26.90;99.90
7366;DHT22;3723;52.220;8.792;2023-10-13T11:56:41;27.00;99.90
7366;DHT22;3723;52.220;8.792;2023-10-13T11:59:08;27.60;99.90
7366;DHT22;3723;52.220;8.792;2023-10-13T12:01:43;27.90;99.90
7366;DHT22;3723;52.220;8.792;2023-10-13T12:04:23;27.60;99.90
7366;DHT22;3723;52.220;8.792;2023-10-13T12:07:00;27.00;99.90
7366;DHT22;3723;52.220;8.792;2023-10-13T12:09:40;26.40;99.90
7366;DHT22;3723;52.220;8.792;2023-10-13T12:12:29;25.90;99.90
7366;DHT22;3723;52.220;8.792;2023-10-13T12:14:59;25.40;99.90
7366;DHT22;3723;52.220;8.792;2023-10-13T12:17:34;25.20;99.90
7366;DHT22;3723;52.220;8.792;2023-10-13T12:20:02;25.00;99.90
7366;DHT22;3723;52.220;8.792;2023-10-13T12:22:32;25.60;99.90
7366;DHT22;3723;52.220;8.792;2023-10-13T12:25:05;26.60;99.90
7366;DHT22;3723;52.220;8.792;2023-10-13T12:27:45;27.40;99.90
7366;DHT22;3723;52.220;8.792;2023-10-13T12:30:14;27.80;99.90
7366;DHT22;3723;52.220;8.792;2023-10-13T12:32:48;27.70;99.90
7366;DHT22;3723;52.220;8.792;2023-10-13T12:35:25;27.80;99.90
7366;DHT22;3723;52.220;8.792;2023-10-13T12:38:02;27.90;99.90
7366;DHT22;3723;52.220;8.792;2023-10-13T12:40:42;27.50;99.90
7366;DHT22;3723;52.220;8.792;2023-10-13T12:43:28;26.80;99.90
7366;DHT22;3723;52.220;8.792;2023-10-13T12:46:13;26.10;99.90
7366;DHT22;3723;52.220;8.792;2023-10-13T12:49:05;25.30;99.90
7366;DHT22;3723;52.220;8.792;2023-10-13T12:51:43;24.90;99.90
7366;DHT22;3723;52.220;8.792;2023-10-13T12:54:20;24.70;99.90
7366;DHT22;3723;52.220;8.792;2023-10-13T12:56:49;24.60;99.90
7366;DHT22;3723;52.220;8.792;2023-10-13T12:59:22;24.60;99.90
7366;DHT22;3723;52.220;8.792;2023-10-13T13:01:52;24.50;99.90
7366;DHT22;3723;52.220;8.792;2023-10-13T13:04:20;24.40;99.90
7366;DHT22;3723;52.220;8.792;2023-10-13T13:06:51;24.30;99.90
7366;DHT22;3723;52.220;8.792;2023-10-13T13:09:20;24.30;99.90
7366;DHT22;3723;52.220;8.792;2023-10-13T13:11:52;24.40;99.90
7366;DHT22;3723;52.220;8.792;2023-10-13T13:14:22;24.60;99.90
7366;DHT22;3723;52.220;8.792;2023-10-13T13:16:54;24.80;99.90
7366;DHT22;3723;52.220;8.792;2023-10-13T13:19:30;25.20;99.90
7366;DHT22;3723;52.220;8.792;2023-10-13T13:21:59;25.20;99.90
7366;DHT22;3723;52.220;8.792;2023-10-13T13:24:28;24.90;99.90
7366;DHT22;3723;52.220;8.792;2023-10-13T13:26:56;24.70;99.90
7366;DHT22;3723;52.220;8.792;2023-10-13T13:29:36;24.50;99.90
7366;DHT22;3723;52.220;8.792;2023-10-13T13:32:12;24.40;99.90
7366;DHT22;3723;52.220;8.792;2023-10-13T13:34:44;24.40;99.90
7366;DHT22;3723;52.220;8.792;2023-10-13T13:37:21;24.50;99.90
7366;DHT22;3723;52.220;8.792;2023-10-13T13:39:54;24.60;99.90
7366;DHT22;3723;52.220;8.792;2023-10-13T13:42:21;24.70;99.90
7366;DHT22;3723;52.220;8.792;2023-10-13T13:44:48;24.70;99.90
7366;DHT22;3723;52.220;8.792;2023-10-13T13:47:15;24.90;99.90
7366;DHT22;3723;52.220;8.792;2023-10-13T13:49:42;25.10;99.90
7366;DHT22;3723;52.220;8.792;2023-10-13T13:52:17;25.40;99.90
7366;DHT22;3723;52.220;8.792;2023-10-13T13:54:47;25.90;99.90
7366;DHT22;3723;52.220;8.792;2023-10-13T13:57:16;25.90;99.90
7366;DHT22;3723;52.220;8.792;2023-10-13T13:59:43;25.60;99.90
7366;DHT22;3723;52.220;8.792;2023-10-13T14:02:10;25.40;99.90
7366;DHT22;3723;52.220;8.792;2023-10-13T14:04:46;25.70;99.90
7366;DHT22;3723;52.220;8.792;2023-10-13T14:07:16;26.20;99.90
7366;DHT22;3723;52.220;8.792;2023-10-13T14:09:45;26.70;99.90
7366;DHT22;3723;52.220;8.792;2023-10-13T14:12:18;27.10;99.90
7366;DHT22;3723;52.220;8.792;2023-10-13T14:15:03;27.30;99.90
7366;DHT22;3723;52.220;8.792;2023-10-13T14:17:36;27.50;99.90
7366;DHT22;3723;52.220;8.792;2023-10-13T14:20:08;27.60;99.90
7366;DHT22;3723;52.220;8.792;2023-10-13T14:22:43;27.70;99.90
7366;DHT22;3723;52.220;8.792;2023-10-13T14:25:14;27.50;99.90
7366;DHT22;3723;52.220;8.792;2023-10-13T14:27:44;27.20;99.90
7366;DHT22;3723;52.220;8.792;2023-10-13T14:30:12;26.70;99.90
7366;DHT22;3723;52.220;8.792;2023-10-13T14:32:45;26.10;99.90
7366;DHT22;3723;52.220;8.792;2023-10-13T14:35:12;25.60;99.90
7366;DHT22;3723;52.220;8.792;2023-10-13T14:37:41;25.20;99.90
7366;DHT22;3723;52.220;8.792;2023-10-13T14:40:08;24.90;99.90
7366;DHT22;3723;52.220;8.792;2023-10-13T14:42:38;24.60;99.90
7366;DHT22;3723;52.220;8.792;2023-10-13T14:45:08;24.30;99.90
7366;DHT22;3723;52.220;8.792;2023-10-13T14:47:38;24.30;99.90
7366;DHT22;3723;52.220;8.792;2023-10-13T14:50:07;24.10;99.90
7366;DHT22;3723;52.220;8.792;2023-10-13T14:52:40;24.10;99.90
7366;DHT22;3723;52.220;8.792;2023-10-13T14:55:17;24.00;99.90
7366;DHT22;3723;52.220;8.792;2023-10-13T14:57:47;24.10;99.90
7366;DHT22;3723;52.220;8.792;2023-10-13T15:00:17;24.00;99.90
7366;DHT22;3723;52.220;8.792;2023-10-13T15:02:51;23.90;99.90
7366;DHT22;3723;52.220;8.792;2023-10-13T15:05:18;23.80;99.90
7366;DHT22;3723;52.220;8.792;2023-10-13T15:07:45;23.70;99.90
7366;DHT22;3723;52.220;8.792;2023-10-13T15:10:13;23.60;99.90
7366;DHT22;3723;52.220;8.792;2023-10-13T15:12:42;23.60;99.90
7366;DHT22;3723;52.220;8.792;2023-10-13T15:15:10;23.60;99.90
7366;DHT22;3723;52.220;8.792;2023-10-13T15:17:42;23.60;99.90
7366;DHT22;3723;52.220;8.792;2023-10-13T15:20:10;23.50;99.90
7366;DHT22;3723;52.220;8.792;2023-10-13T15:22:42;23.50;99.90
7366;DHT22;3723;52.220;8.792;2023-10-13T15:25:09;23.50;99.90
7366;DHT22;3723;52.220;8.792;2023-10-13T15:27:44;23.40;99.90
7366;DHT22;3723;52.220;8.792;2023-10-13T15:30:16;23.50;99.90
7366;DHT22;3723;52.220;8.792;2023-10-13T15:33:08;23.40;99.90
7366;DHT22;3723;52.220;8.792;2023-10-13T15:35:38;23.40;99.90
7366;DHT22;3723;52.220;8.792;2023-10-13T15:38:10;23.40;99.90
7366;DHT22;3723;52.220;8.792;2023-10-13T15:40:41;23.40;99.90
7366;DHT22;3723;52.220;8.792;2023-10-13T15:43:09;23.40;99.90
7366;DHT22;3723;52.220;8.792;2023-10-13T15:45:36;23.30;99.90
7366;DHT22;3723;52.220;8.792;2023-10-13T15:48:09;23.30;99.90
7366;DHT22;3723;52.220;8.792;2023-10-13T15:50:37;23.20;99.90
7366;DHT22;3723;52.220;8.792;2023-10-13T15:53:06;23.10;99.90
7366;DHT22;3723;52.220;8.792;2023-10-13T15:55:35;23.10;99.90
7366;DHT22;3723;52.220;8.792;2023-10-13T15:58:03;23.00;99.90
7366;DHT22;3723;52.220;8.792;2023-10-13T16:00:34;23.00;99.90
7366;DHT22;3723;52.220;8.792;2023-10-13T16:03:01;22.90;99.90
7366;DHT22;3723;52.220;8.792;2023-10-13T16:05:38;22.90;99.90
7366;DHT22;3723;52.220;8.792;2023-10-13T16:08:08;22.80;99.90
7366;DHT22;3723;52.220;8.792;2023-10-13T16:10:44;22.70;99.90
7366;DHT22;3723;52.220;8.792;2023-10-13T16:13:11;22.70;99.90
7366;DHT22;3723;52.220;8.792;2023-10-13T16:15:45;22.60;99.90
7366;DHT22;3723;52.220;8.792;2023-10-13T16:18:13;22.60;99.90
7366;DHT22;3723;52.220;8.792;2023-10-13T16:20:41;22.50;99.90
7366;DHT22;3723;52.220;8.792;2023-10-13T16:23:08;22.50;99.90
7366;DHT22;3723;52.220;8.792;2023-10-13T16:25:42;22.40;99.90
7366;DHT22;3723;52.220;8.792;2023-10-13T16:28:10;22.40;99.90
7366;DHT22;3723;52.220;8.792;2023-10-13T16:30:45;22.40;99.90
7366;DHT22;3723;52.220;8.792;2023-10-13T16:33:12;22.40;99.90
7366;DHT22;3723;52.220;8.792;2023-10-13T16:35:43;22.40;99.90
7366;DHT22;3723;52.220;8.792;2023-10-13T16:38:19;22.40;99.90
7366;DHT22;3723;52.220;8.792;2023-10-13T16:40:51;22.30;99.90
7366;DHT22;3723;52.220;8.792;2023-10-13T16:43:28;22.20;99.90
7366;DHT22;3723;52.220;8.792;2023-10-13T16:46:09;22.20;99.90
7366;DHT22;3723;52.220;8.792;2023-10-13T16:48:40;22.20;99.90
7366;DHT22;3723;52.220;8.792;2023-10-13T16:51:18;22.10;99.90
7366;DHT22;3723;52.220;8.792;2023-10-13T16:53:48;22.10;99.90
7366;DHT22;3723;52.220;8.792;2023-10-13T16:56:15;21.90;99.90
7366;DHT22;3723;52.220;8.792;2023-10-13T16:58:43;21.90;99.90
7366;DHT22;3723;52.220;8.792;2023-10-13T17:01:16;21.80;99.90